createdAt,value
2022-08-05T00:00:18.476Z,2.92
2022-08-05T00:02:51.570Z,2.65
2022-08-05T00:06:03.201Z,4.10
2022-08-05T00:08:33.056Z,2.90
2022-08-05T00:11:02.349Z,2.83
2022-08-05T00:13:39.633Z,3.70
2022-08-05T00:16:12.593Z,2.90
2022-08-05T00:18:45.442Z,3.25
2022-08-05T00:21:14.412Z,4.38
2022-08-05T00:23:46.288Z,2.78
2022-08-05T00:26:22.014Z,3.80
2022-08-05T00:28:50.534Z,3.35
2022-08-05T00:31:41.521Z,6.07
2022-08-05T00:34:56.560Z,2.90
2022-08-05T00:37:10.959Z,3.90
2022-08-05T00:39:57.286Z,4.95
2022-08-05T00:42:37.013Z,3.28
2022-08-05T00:45:08.872Z,4.25
2022-08-05T00:47:57.228Z,2.88
2022-08-05T00:50:26.641Z,3.80
2022-08-05T00:52:55.180Z,3.30
2022-08-05T00:55:34.142Z,4.22
2022-08-05T00:58:12.305Z,4.07
2022-08-05T01:00:41.400Z,3.00
2022-08-05T01:03:22.195Z,3.25
2022-08-05T01:05:51.897Z,3.42
2022-08-05T01:11:37.308Z,3.00
2022-08-05T01:14:34.927Z,2.97
2022-08-05T01:17:08.965Z,3.65
2022-08-05T01:20:01.317Z,3.17
2022-08-05T01:23:15.287Z,3.15
2022-08-05T01:26:32.638Z,3.15
2022-08-05T01:29:13.698Z,3.40
2022-08-05T01:31:48.746Z,3.97
2022-08-05T01:34:30.044Z,3.45
2022-08-05T01:37:09.554Z,3.58
2022-08-05T01:39:48.309Z,4.93
2022-08-05T01:42:19.650Z,3.30
2022-08-05T01:44:54.154Z,4.65
2022-08-05T01:47:24.220Z,2.80
2022-08-05T01:50:00.243Z,3.22
2022-08-05T01:52:31.402Z,3.13
2022-08-05T01:55:04.435Z,3.33
2022-08-05T01:58:10.637Z,3.63
2022-08-05T02:00:29.917Z,3.28
2022-08-05T02:03:03.540Z,3.83
2022-08-05T02:05:36.001Z,3.28
2022-08-05T02:08:05.375Z,3.55
2022-08-05T02:10:51.230Z,3.28
2022-08-05T02:13:54.679Z,5.30
2022-08-05T02:16:42.904Z,3.10
2022-08-05T02:19:34.446Z,3.10
2022-08-05T02:22:26.954Z,4.50
2022-08-05T02:25:08.891Z,3.65
2022-08-05T02:27:57.942Z,3.38
2022-08-05T02:30:32.490Z,2.55
2022-08-05T02:33:03.022Z,4.15
2022-08-05T02:35:37.716Z,3.50
2022-08-05T02:40:47.576Z,3.03
2022-08-05T02:43:16.707Z,3.67
2022-08-05T02:45:52.538Z,3.58
2022-08-05T02:48:29.479Z,4.38
2022-08-05T02:51:00.395Z,4.13
2022-08-05T02:53:38.952Z,3.53
2022-08-05T02:56:15.735Z,3.28
2022-08-05T02:58:44.690Z,4.63
2022-08-05T03:01:23.454Z,3.30
2022-08-05T03:04:09.882Z,4.53
2022-08-05T03:06:55.889Z,5.65
2022-08-05T03:09:36.453Z,3.60
2022-08-05T03:12:07.886Z,5.35
2022-08-05T03:14:40.886Z,3.63
2022-08-05T03:17:13.273Z,4.63
2022-08-05T03:19:41.822Z,6.20
2022-08-05T03:22:16.850Z,4.03
2022-08-05T03:24:51.022Z,3.20
2022-08-05T03:27:20.744Z,4.45
2022-08-05T03:30:08.461Z,3.67
2022-08-05T03:32:37.816Z,5.38
2022-08-05T03:35:06.093Z,4.22
2022-08-05T03:37:41.740Z,3.30
2022-08-05T03:40:15.289Z,5.15
2022-08-05T03:42:52.040Z,4.80
2022-08-05T03:45:22.376Z,3.53
2022-08-05T03:47:51.493Z,3.65
2022-08-05T03:50:20.056Z,3.38
2022-08-05T03:55:49.991Z,3.40
2022-08-05T03:56:10.010Z,3.88
2022-08-05T03:58:44.823Z,4.63
2022-08-05T04:01:14.803Z,3.35
2022-08-05T04:04:09.736Z,3.80
2022-08-05T04:06:34.051Z,6.85
2022-08-05T04:09:02.914Z,5.18
2022-08-05T04:11:47.482Z,3.90
2022-08-05T04:14:19.211Z,3.80
2022-08-05T04:16:59.999Z,4.97
2022-08-05T04:19:28.960Z,5.07
2022-08-05T04:22:09.219Z,4.63
2022-08-05T04:24:44.107Z,3.78
2022-08-05T04:27:13.609Z,6.18
2022-08-05T04:29:41.858Z,4.95
2022-08-05T04:32:09.802Z,4.70
2022-08-05T04:34:42.605Z,6.13
2022-08-05T04:37:10.884Z,4.35
2022-08-05T04:39:39.201Z,4.38
2022-08-05T04:42:07.989Z,4.97
2022-08-05T04:44:36.492Z,4.10
2022-08-05T04:47:09.735Z,8.30
2022-08-05T04:50:02.468Z,3.85
2022-08-05T04:52:27.693Z,6.65
2022-08-05T04:54:57.205Z,5.05
2022-08-05T04:57:29.082Z,4.50
2022-08-05T04:59:58.473Z,5.97
2022-08-05T05:02:37.019Z,7.95
2022-08-05T05:05:25.890Z,5.50
2022-08-05T05:08:06.953Z,5.30
2022-08-05T05:10:55.880Z,5.45
2022-08-05T05:15:57.154Z,6.13
2022-08-05T05:18:33.748Z,8.43
2022-08-05T05:21:03.547Z,8.57
2022-08-05T05:23:39.476Z,7.57
2022-08-05T05:26:19.143Z,7.75
2022-08-05T05:28:46.473Z,7.22
2022-08-05T05:31:13.910Z,12.48
2022-08-05T05:33:58.531Z,6.88
2022-08-05T05:36:28.780Z,9.88
2022-08-05T05:39:00.390Z,6.15
2022-08-05T05:41:40.135Z,4.25
2022-08-05T05:44:35.875Z,5.50
2022-08-05T05:46:58.050Z,5.45
2022-08-05T05:49:26.353Z,7.07
2022-08-05T05:51:54.518Z,5.82
2022-08-05T05:54:22.323Z,7.47
2022-08-05T05:57:13.527Z,8.60
2022-08-05T06:02:32.597Z,4.53
2022-08-05T06:05:10.444Z,3.47
2022-08-05T06:08:01.135Z,5.03
2022-08-05T06:10:34.575Z,5.20
2022-08-05T06:13:05.466Z,15.13
2022-08-05T06:16:29.066Z,10.60
2022-08-05T06:18:20.755Z,3.95
2022-08-05T06:21:01.751Z,5.25
2022-08-05T06:23:32.017Z,3.80
2022-08-05T06:26:20.569Z,5.72
2022-08-05T06:28:48.437Z,6.65
2022-08-05T06:31:18.001Z,7.30
2022-08-05T06:34:07.263Z,5.13
2022-08-05T06:36:53.698Z,5.10
2022-08-05T06:39:24.650Z,6.43
2022-08-05T06:41:57.398Z,2.83
2022-08-05T06:44:26.443Z,5.55
2022-08-05T06:46:54.474Z,4.35
2022-08-05T06:50:00.686Z,4.75
2022-08-05T06:52:38.018Z,6.55
2022-08-05T06:54:57.019Z,4.07
2022-08-05T06:58:03.468Z,10.55
2022-08-05T07:00:12.517Z,4.65
2022-08-05T07:02:47.357Z,10.10
2022-08-05T07:05:37.231Z,7.05
2022-08-05T07:08:05.537Z,6.50
2022-08-05T07:10:33.214Z,6.47
2022-08-05T07:13:46.335Z,6.55
2022-08-05T07:18:00.302Z,6.70
2022-08-05T07:19:16.087Z,6.68
2022-08-05T07:22:01.432Z,4.40
2022-08-05T07:24:30.199Z,4.45
2022-08-05T07:26:57.712Z,6.28
2022-08-05T07:30:25.453Z,8.73
2022-08-05T07:32:12.611Z,4.60
2022-08-05T07:34:42.574Z,3.83
2022-08-05T07:37:11.592Z,8.07
2022-08-05T07:40:04.611Z,6.55
2022-08-05T07:42:33.691Z,5.65
2022-08-05T07:45:01.718Z,4.05
2022-08-05T07:47:31.139Z,5.93
2022-08-05T07:50:10.326Z,4.75
2022-08-05T07:52:42.117Z,3.95
2022-08-05T07:55:15.792Z,5.63
2022-08-05T07:58:03.041Z,5.22
2022-08-05T08:00:31.045Z,4.80
2022-08-05T08:03:15.046Z,7.57
2022-08-05T08:05:49.635Z,7.00
2022-08-05T08:08:19.803Z,6.60
2022-08-05T08:10:48.809Z,6.57
2022-08-05T08:13:28.811Z,7.78
2022-08-05T08:16:34.699Z,7.97
2022-08-05T08:18:49.920Z,9.70
2022-08-05T08:21:18.010Z,8.98
2022-08-05T08:24:01.801Z,4.30
2022-08-05T08:26:32.661Z,7.57
2022-08-05T08:29:29.252Z,6.53
2022-08-05T08:31:48.213Z,9.95
2022-08-05T08:34:30.762Z,10.07
2022-08-05T08:37:03.166Z,7.63
2022-08-05T08:39:32.528Z,3.80
2022-08-05T08:42:22.529Z,6.97
2022-08-05T08:45:23.346Z,7.63
2022-08-05T08:48:06.695Z,7.93
2022-08-05T08:51:03.181Z,6.57
2022-08-05T08:53:27.334Z,4.63
2022-08-05T08:56:03.691Z,8.18
2022-08-05T08:58:43.998Z,8.88
2022-08-05T09:01:18.062Z,7.13
2022-08-05T09:03:54.450Z,3.67
2022-08-05T09:06:29.391Z,4.47
2022-08-05T09:09:01.763Z,7.95
2022-08-05T09:11:53.064Z,10.85
2022-08-05T09:14:58.424Z,12.05
2022-08-05T09:17:39.936Z,4.60
2022-08-05T09:20:02.729Z,5.82
2022-08-05T09:23:09.593Z,4.82
2022-08-05T09:26:03.413Z,7.70
2022-08-05T09:28:31.894Z,8.32
2022-08-05T09:31:22.925Z,13.88
2022-08-05T09:33:56.728Z,10.95
2022-08-05T09:36:27.775Z,11.00
2022-08-05T09:39:03.905Z,5.82
2022-08-05T09:42:00.212Z,10.40
2022-08-05T09:44:39.925Z,11.73
2022-08-05T09:47:20.644Z,11.57
2022-08-05T09:50:00.372Z,7.23
2022-08-05T09:52:32.937Z,21.15
2022-08-05T09:55:58.716Z,14.40
2022-08-05T09:57:54.759Z,11.77
2022-08-05T10:00:26.579Z,15.30
2022-08-05T10:02:55.153Z,9.57
2022-08-05T10:05:28.619Z,11.35
2022-08-05T10:08:35.407Z,6.75
2022-08-05T10:10:54.310Z,19.08
2022-08-05T10:13:45.800Z,28.27
2022-08-05T10:16:42.075Z,6.70
2022-08-05T10:19:23.829Z,4.70
2022-08-05T10:22:15.628Z,5.93
2022-08-05T10:24:57.922Z,4.38
2022-08-05T10:28:13.573Z,5.63
2022-08-05T10:31:19.989Z,5.05
2022-08-05T10:33:03.065Z,5.10
2022-08-05T10:35:40.368Z,5.70
2022-08-05T10:38:08.593Z,6.05
2022-08-05T10:43:51.122Z,5.32
2022-08-05T10:46:24.137Z,5.75
2022-08-05T10:49:02.699Z,5.78
2022-08-05T10:51:59.914Z,6.47
2022-08-05T10:55:08.091Z,6.22
2022-08-05T10:57:41.305Z,5.82
2022-08-05T11:00:20.008Z,6.72
2022-08-05T11:03:23.735Z,5.10
2022-08-05T11:06:15.956Z,6.93
2022-08-05T11:09:32.354Z,7.15
2022-08-05T11:12:54.254Z,6.50
2022-08-05T11:16:01.335Z,13.35
2022-08-05T11:18:34.298Z,16.45
2022-08-05T11:21:12.043Z,14.98
2022-08-05T11:24:05.287Z,4.93
2022-08-05T11:26:43.207Z,5.03
2022-08-05T11:29:34.434Z,6.03
2022-08-05T11:32:25.418Z,3.63
2022-08-05T11:34:54.332Z,7.22
2022-08-05T11:38:29.586Z,4.80
2022-08-05T11:41:34.397Z,3.30
2022-08-05T11:44:10.869Z,4.97
2022-08-05T11:46:58.225Z,4.10
2022-08-05T11:49:26.415Z,3.95
2022-08-05T11:51:54.470Z,3.78
2022-08-05T11:54:33.538Z,5.15
2022-08-05T11:57:08.418Z,3.67
2022-08-05T11:59:51.787Z,6.53
2022-08-05T12:02:30.272Z,3.63
2022-08-05T12:05:07.219Z,3.43
2022-08-05T12:08:03.609Z,4.10
2022-08-05T12:10:39.051Z,5.63
2022-08-05T12:13:15.811Z,5.07
2022-08-05T12:15:49.873Z,4.47
2022-08-05T12:18:19.133Z,3.83
2022-08-05T12:20:48.129Z,3.80
2022-08-05T12:23:16.781Z,5.18
2022-08-05T12:25:56.638Z,4.25
2022-08-05T12:28:38.157Z,5.23
2022-08-05T12:31:05.887Z,3.30
2022-08-05T12:33:38.639Z,3.40
2022-08-05T12:36:08.831Z,5.82
2022-08-05T12:38:41.339Z,4.07
2022-08-05T12:41:12.983Z,2.45
2022-08-05T12:43:53.044Z,4.63
2022-08-05T12:46:29.448Z,3.42
2022-08-05T12:49:13.566Z,4.30
2022-08-05T12:52:12.511Z,5.43
2022-08-05T12:54:37.075Z,3.58
2022-08-05T12:57:09.577Z,3.72
2022-08-05T13:01:56.754Z,3.60
2022-08-05T13:02:40.130Z,3.03
2022-08-05T13:05:12.614Z,3.55
2022-08-05T13:07:59.953Z,3.13
2022-08-05T13:10:33.280Z,5.00
2022-08-05T13:13:00.681Z,5.43
2022-08-05T13:15:41.449Z,4.43
2022-08-05T13:18:20.100Z,3.03
2022-08-05T13:20:49.287Z,3.97
2022-08-05T13:23:22.844Z,4.20
2022-08-05T13:25:59.584Z,5.07
2022-08-05T13:28:29.070Z,3.65
2022-08-05T13:30:59.442Z,3.88
2022-08-05T13:34:23.890Z,3.05
2022-08-05T13:36:18.620Z,3.58
2022-08-05T13:38:46.005Z,4.13
2022-08-05T13:41:19.689Z,1.75
2022-08-05T13:43:55.030Z,2.53
2022-08-05T13:46:38.033Z,3.20
2022-08-05T13:49:11.688Z,2.35
2022-08-05T13:51:46.590Z,4.45
2022-08-05T13:54:16.669Z,5.07
2022-08-05T13:56:50.978Z,2.75
2022-08-05T13:59:24.467Z,2.78
2022-08-05T14:02:00.152Z,2.03
2022-08-05T14:04:51.186Z,2.67
2022-08-05T14:08:00.348Z,2.55
2022-08-05T14:10:28.710Z,3.08
2022-08-05T14:12:59.283Z,3.33
2022-08-05T14:16:05.784Z,5.45
2022-08-05T14:18:18.641Z,5.57
2022-08-05T14:20:54.918Z,3.65
2022-08-05T14:23:25.748Z,3.75
2022-08-05T14:28:28.217Z,2.30
2022-08-05T14:30:56.956Z,2.53
2022-08-05T14:33:24.527Z,5.15
2022-08-05T14:35:54.449Z,3.55
2022-08-05T14:38:27.804Z,5.33
2022-08-05T14:41:01.389Z,1.98
2022-08-05T14:44:00.194Z,2.55
2022-08-05T14:46:16.197Z,2.10
2022-08-05T14:48:43.860Z,3.03
2022-08-05T14:51:17.949Z,2.65
2022-08-05T14:53:46.501Z,3.30
2022-08-05T14:56:34.782Z,2.85
2022-08-05T14:59:05.358Z,3.63
2022-08-05T15:01:48.342Z,2.72
2022-08-05T15:04:20.415Z,2.40
2022-08-05T15:06:53.004Z,3.45
2022-08-05T15:09:52.876Z,3.78
2022-08-05T15:12:11.738Z,2.22
2022-08-05T15:14:54.409Z,2.08
2022-08-05T15:17:45.737Z,3.33
2022-08-05T15:20:18.618Z,2.90
2022-08-05T15:22:54.417Z,2.05
2022-08-05T15:25:51.712Z,2.92
2022-08-05T15:28:15.656Z,1.98
2022-08-05T15:30:45.892Z,4.78
2022-08-05T15:34:05.213Z,2.65
2022-08-05T15:36:05.698Z,2.47
2022-08-05T15:38:48.109Z,4.53
2022-08-05T15:41:22.121Z,5.85
2022-08-05T15:43:51.459Z,2.55
2022-08-05T15:46:24.203Z,3.13
2022-08-05T15:48:57.958Z,6.55
2022-08-05T15:52:13.443Z,3.03
2022-08-05T15:54:16.709Z,3.83
2022-08-05T15:56:44.097Z,3.28
2022-08-05T15:59:21.589Z,5.15
2022-08-05T16:01:52.969Z,2.97
2022-08-05T16:04:25.543Z,8.55
2022-08-05T16:06:55.556Z,6.90
2022-08-05T16:09:24.784Z,5.00
2022-08-05T16:11:54.015Z,2.78
2022-08-05T16:14:22.595Z,3.40
2022-08-05T16:16:50.080Z,3.10
2022-08-05T16:19:25.244Z,2.35
2022-08-05T16:22:05.694Z,2.33
2022-08-05T16:24:40.153Z,6.68
2022-08-05T16:27:10.029Z,2.95
2022-08-05T16:29:50.258Z,3.00
2022-08-05T16:32:23.331Z,4.57
2022-08-05T16:34:56.866Z,4.28
2022-08-05T16:38:02.423Z,3.47
2022-08-05T16:40:25.152Z,5.13
2022-08-05T16:42:57.282Z,3.10
2022-08-05T16:46:06.451Z,2.38
2022-08-05T16:48:12.030Z,4.07
2022-08-05T16:50:54.120Z,2.15
2022-08-05T16:53:32.398Z,3.53
2022-08-05T16:56:10.232Z,3.40
2022-08-05T16:58:39.091Z,4.05
2022-08-05T17:01:06.825Z,4.85
2022-08-05T17:03:38.860Z,4.15
2022-08-05T17:06:06.980Z,2.10
2022-08-05T17:08:51.868Z,4.32
2022-08-05T17:11:25.759Z,4.70
2022-08-05T17:14:00.254Z,5.13
2022-08-05T17:16:36.701Z,5.70
2022-08-05T17:19:07.330Z,5.10
2022-08-05T17:21:37.734Z,7.13
2022-08-05T17:24:19.834Z,6.50
2022-08-05T17:26:57.858Z,4.75
2022-08-05T17:29:33.607Z,2.78
2022-08-05T17:32:17.226Z,4.10
2022-08-05T17:34:49.230Z,5.82
2022-08-05T17:37:40.970Z,3.10
2022-08-05T17:40:12.158Z,20.98
2022-08-05T17:42:50.557Z,19.45
2022-08-05T17:45:24.918Z,15.73
2022-08-05T17:47:55.411Z,8.52
2022-08-05T17:50:28.504Z,9.82
2022-08-05T17:53:02.396Z,9.65
2022-08-05T17:55:37.949Z,4.30
2022-08-05T17:58:11.239Z,10.00
2022-08-05T18:00:44.400Z,10.55
2022-08-05T18:03:24.120Z,7.78
2022-08-05T18:06:06.122Z,4.95
2022-08-05T18:08:44.126Z,7.80
2022-08-05T18:11:24.084Z,8.32
2022-08-05T18:13:56.950Z,5.82
2022-08-05T18:16:27.018Z,6.82
2022-08-05T18:18:54.359Z,5.72
2022-08-05T18:21:26.474Z,3.83
2022-08-05T18:24:12.705Z,4.20
2022-08-05T18:26:42.120Z,5.95
2022-08-05T18:29:11.277Z,6.70
2022-08-05T18:31:43.160Z,6.97
2022-08-05T18:34:12.300Z,7.97
2022-08-05T18:36:41.154Z,4.72
2022-08-05T18:39:22.485Z,6.32
2022-08-05T18:42:03.610Z,5.50
2022-08-05T18:44:51.678Z,6.60
2022-08-05T18:47:22.991Z,5.55
2022-08-05T18:50:15.739Z,7.47
2022-08-05T18:52:51.174Z,7.45
2022-08-05T18:55:19.971Z,6.00
2022-08-05T18:57:53.518Z,6.32
2022-08-05T19:00:30.805Z,5.38
2022-08-05T19:03:03.948Z,6.40
2022-08-05T19:06:12.137Z,6.32
2022-08-05T19:08:21.566Z,5.97
2022-08-05T19:10:50.402Z,5.82
2022-08-05T19:13:18.282Z,6.63
2022-08-05T19:15:58.699Z,7.10
2022-08-05T19:18:28.722Z,6.95
2022-08-05T19:20:56.521Z,6.50
2022-08-05T19:24:06.840Z,7.35
2022-08-05T19:26:12.043Z,5.57
2022-08-05T19:28:43.568Z,6.65
2022-08-05T19:33:55.658Z,5.38
2022-08-05T19:36:25.963Z,6.28
2022-08-05T19:39:01.187Z,7.03
2022-08-05T19:41:58.385Z,6.45
2022-08-05T19:44:18.874Z,5.53
2022-08-05T19:46:46.764Z,4.72
2022-08-05T19:49:17.274Z,5.68
2022-08-05T19:52:04.589Z,4.00
2022-08-05T19:54:34.841Z,5.28
2022-08-05T19:57:08.506Z,3.10
2022-08-05T20:00:00.881Z,4.25
2022-08-05T20:02:27.934Z,3.75
2022-08-05T20:04:58.829Z,3.00
2022-08-05T20:07:47.049Z,3.55
2022-08-05T20:10:17.327Z,2.35
2022-08-05T20:12:49.245Z,2.35
2022-08-05T20:15:47.744Z,1.98
2022-08-05T20:18:10.469Z,3.60
2022-08-05T20:20:56.221Z,3.38
2022-08-05T20:23:40.551Z,3.28
2022-08-05T20:26:16.129Z,2.28
2022-08-05T20:28:50.502Z,4.55
2022-08-05T20:31:21.534Z,0.75
2022-08-05T20:33:51.326Z,1.90
2022-08-05T20:36:19.668Z,0.90
2022-08-05T20:38:54.411Z,1.38
2022-08-05T20:41:43.272Z,1.67
2022-08-05T20:44:18.601Z,3.72
2022-08-05T20:47:03.174Z,1.52
2022-08-05T20:49:33.242Z,1.55
2022-08-05T20:52:07.444Z,2.03
2022-08-05T20:54:43.052Z,2.63
2022-08-05T20:57:42.763Z,1.10
2022-08-05T21:00:40.099Z,1.20
2022-08-05T21:03:07.056Z,0.80
2022-08-05T21:05:53.318Z,2.10
2022-08-05T21:08:26.883Z,3.17
2022-08-05T21:11:12.016Z,1.70
2022-08-05T21:13:56.380Z,3.20
2022-08-05T21:16:29.938Z,1.33
2022-08-05T21:19:00.327Z,1.20
2022-08-05T21:21:39.352Z,2.60
2022-08-05T21:24:12.688Z,1.42
2022-08-05T21:26:41.418Z,1.92
2022-08-05T21:29:12.589Z,1.00
2022-08-05T21:31:44.352Z,1.58
2022-08-05T21:34:11.672Z,0.70
2022-08-05T21:36:39.585Z,2.10
2022-08-05T21:39:14.344Z,0.93
2022-08-05T21:41:52.584Z,1.90
2022-08-05T21:44:27.025Z,1.13
2022-08-05T21:46:58.013Z,1.35
2022-08-05T21:49:58.746Z,1.85
2022-08-05T21:52:21.689Z,1.42
2022-08-05T21:54:56.968Z,2.50
2022-08-05T21:57:32.606Z,2.95
2022-08-05T22:00:05.482Z,3.28
2022-08-05T22:02:43.211Z,1.50
2022-08-05T22:05:12.182Z,1.17
2022-08-05T22:07:58.461Z,1.25
2022-08-05T22:10:28.080Z,0.90
2022-08-05T22:12:57.520Z,1.27
2022-08-05T22:16:00.750Z,2.00
2022-08-05T22:18:14.773Z,0.77
2022-08-05T22:20:42.867Z,2.00
2022-08-05T22:24:01.086Z,1.45
2022-08-05T22:26:36.439Z,2.25
2022-08-05T22:29:05.540Z,2.25
2022-08-05T22:31:44.797Z,1.50
2022-08-05T22:34:25.710Z,1.30
2022-08-05T22:36:57.045Z,1.90
2022-08-05T22:39:32.939Z,1.00
2022-08-05T22:42:10.231Z,1.75
2022-08-05T22:44:48.213Z,2.75
2022-08-05T22:47:29.304Z,2.15
2022-08-05T22:50:19.893Z,3.38
2022-08-05T22:52:47.066Z,1.38
2022-08-05T22:55:19.419Z,2.38
2022-08-05T22:57:53.378Z,4.05
2022-08-05T23:00:22.134Z,1.20
2022-08-05T23:02:50.706Z,3.42
2022-08-05T23:05:19.108Z,1.33
2022-08-05T23:07:50.720Z,3.05
2022-08-05T23:10:20.976Z,4.35
2022-08-05T23:12:54.446Z,3.20
2022-08-05T23:15:26.970Z,2.92
2022-08-05T23:18:01.154Z,2.40
2022-08-05T23:20:31.332Z,3.83
2022-08-05T23:22:59.990Z,3.80
2022-08-05T23:25:53.093Z,2.38
2022-08-05T23:28:15.909Z,1.88
2022-08-05T23:30:53.414Z,2.58
2022-08-05T23:33:26.111Z,4.03
2022-08-05T23:36:10.653Z,2.28
2022-08-05T23:38:39.284Z,2.15
2022-08-05T23:41:06.601Z,1.30
2022-08-05T23:44:02.797Z,2.65
2022-08-05T23:46:22.289Z,1.38
2022-08-05T23:49:00.919Z,3.88
2022-08-05T23:51:52.485Z,2.40
2022-08-05T23:54:25.225Z,2.20
2022-08-05T23:57:03.387Z,2.92
2022-08-05T23:59:37.683Z,4.38
